Terminal Aerodrome Forecast
Issued by NWS

Home | Current Version | Previous Version | Text Only | Print | Product List | Glossary On
Versions: 1 2 3 4 5 6 7 8 9 10 11 12 13 14
000
FTUS43 KOAX 020028 CCA
TAFBFF
TAF COR
KBFF 020028Z 0200/0224 07008KT P6SM BKN110
      TEMPO 0200/0202 VRB20G30KT 5SM -TSRA BKN050CB
     FM020800 08007KT P6SM BKN080
      TEMPO 0208/0212 4SM -SHRA BKN040
     FM021500 03010KT P6SM SCT080
     FM022000 03010G20KT P6SM VCTS BKN080CB=

USA.gov is the U.S. government's official web portal to all federal, state and local government web resources and services.